sensor_id;sensor_type;location;lat;lon;timestamp;temperature;humidity
20068;DHT22;10194;50.824;7.134;2023-09-08T00:00:57;17.70;99.90
20068;DHT22;10194;50.824;7.134;2023-09-08T00:03:23;17.70;99.90
20068;DHT22;10194;50.824;7.134;2023-09-08T00:05:49;17.80;99.90
20068;DHT22;10194;50.824;7.134;2023-09-08T00:08:16;17.80;99.90
20068;DHT22;10194;50.824;7.134;2023-09-08T00:10:43;17.70;99.90
20068;DHT22;10194;50.824;7.134;2023-09-08T00:13:11;17.80;99.90
20068;DHT22;10194;50.824;7.134;2023-09-08T00:15:39;17.80;99.90
20068;DHT22;10194;50.824;7.134;2023-09-08T00:18:05;17.80;99.90
20068;DHT22;10194;50.824;7.134;2023-09-08T00:20:30;17.90;99.90
20068;DHT22;10194;50.824;7.134;2023-09-08T00:22:56;17.90;99.90
20068;DHT22;10194;50.824;7.134;2023-09-08T00:25:22;17.90;99.90
20068;DHT22;10194;50.824;7.134;2023-09-08T00:27:50;17.70;99.90
20068;DHT22;10194;50.824;7.134;2023-09-08T00:30:17;17.70;99.90
20068;DHT22;10194;50.824;7.134;2023-09-08T00:32:43;17.70;99.90
20068;DHT22;10194;50.824;7.134;2023-09-08T00:35:11;17.70;99.90
20068;DHT22;10194;50.824;7.134;2023-09-08T00:37:39;17.70;99.90
20068;DHT22;10194;50.824;7.134;2023-09-08T00:40:06;17.70;99.90
20068;DHT22;10194;50.824;7.134;2023-09-08T00:42:34;17.70;99.90
20068;DHT22;10194;50.824;7.134;2023-09-08T00:44:59;17.70;99.90
20068;DHT22;10194;50.824;7.134;2023-09-08T00:47:25;17.70;99.90
20068;DHT22;10194;50.824;7.134;2023-09-08T00:49:51;17.60;99.90
20068;DHT22;10194;50.824;7.134;2023-09-08T00:52:17;17.60;99.90
20068;DHT22;10194;50.824;7.134;2023-09-08T00:54:43;17.70;99.90
20068;DHT22;10194;50.824;7.134;2023-09-08T00:57:09;17.70;99.90
20068;DHT22;10194;50.824;7.134;2023-09-08T00:59:35;17.60;99.90
20068;DHT22;10194;50.824;7.134;2023-09-08T01:02:02;17.60;99.90
20068;DHT22;10194;50.824;7.134;2023-09-08T01:04:28;17.50;99.90
20068;DHT22;10194;50.824;7.134;2023-09-08T01:06:55;17.50;99.90
20068;DHT22;10194;50.824;7.134;2023-09-08T01:09:21;17.60;99.90
20068;DHT22;10194;50.824;7.134;2023-09-08T01:11:49;17.50;99.90
20068;DHT22;10194;50.824;7.134;2023-09-08T01:14:23;17.50;99.90
20068;DHT22;10194;50.824;7.134;2023-09-08T01:16:50;17.40;99.90
20068;DHT22;10194;50.824;7.134;2023-09-08T01:19:20;17.40;99.90
20068;DHT22;10194;50.824;7.134;2023-09-08T01:21:58;17.30;99.90
20068;DHT22;10194;50.824;7.134;2023-09-08T01:27:38;17.20;99.90
20068;DHT22;10194;50.824;7.134;2023-09-08T01:30:06;17.20;99.90
20068;DHT22;10194;50.824;7.134;2023-09-08T01:32:32;17.10;99.90
20068;DHT22;10194;50.824;7.134;2023-09-08T01:35:00;17.00;99.90
20068;DHT22;10194;50.824;7.134;2023-09-08T01:37:26;16.90;99.90
20068;DHT22;10194;50.824;7.134;2023-09-08T01:39:52;16.80;99.90
20068;DHT22;10194;50.824;7.134;2023-09-08T01:42:17;16.80;99.90
20068;DHT22;10194;50.824;7.134;2023-09-08T01:44:43;16.70;99.90
20068;DHT22;10194;50.824;7.134;2023-09-08T01:47:09;16.60;99.90
20068;DHT22;10194;50.824;7.134;2023-09-08T01:49:35;16.60;99.90
20068;DHT22;10194;50.824;7.134;2023-09-08T01:52:00;16.70;99.90
20068;DHT22;10194;50.824;7.134;2023-09-08T01:59:37;16.60;99.90
20068;DHT22;10194;50.824;7.134;2023-09-08T02:02:03;16.70;99.90
20068;DHT22;10194;50.824;7.134;2023-09-08T02:04:29;16.70;99.90
20068;DHT22;10194;50.824;7.134;2023-09-08T02:06:55;16.60;99.90
20068;DHT22;10194;50.824;7.134;2023-09-08T02:09:21;16.60;99.90
20068;DHT22;10194;50.824;7.134;2023-09-08T02:11:47;16.60;99.90
20068;DHT22;10194;50.824;7.134;2023-09-08T02:14:13;16.60;99.90
20068;DHT22;10194;50.824;7.134;2023-09-08T02:16:39;16.60;99.90
20068;DHT22;10194;50.824;7.134;2023-09-08T02:19:05;16.50;99.90
20068;DHT22;10194;50.824;7.134;2023-09-08T02:21:31;16.50;99.90
20068;DHT22;10194;50.824;7.134;2023-09-08T02:23:56;16.50;99.90
20068;DHT22;10194;50.824;7.134;2023-09-08T02:26:22;16.50;99.90
20068;DHT22;10194;50.824;7.134;2023-09-08T02:28:48;16.50;99.90
20068;DHT22;10194;50.824;7.134;2023-09-08T02:31:13;16.50;99.90
20068;DHT22;10194;50.824;7.134;2023-09-08T02:33:39;16.50;99.90
20068;DHT22;10194;50.824;7.134;2023-09-08T02:36:05;16.40;99.90
20068;DHT22;10194;50.824;7.134;2023-09-08T02:38:32;16.40;99.90
20068;DHT22;10194;50.824;7.134;2023-09-08T02:40:58;16.30;99.90
20068;DHT22;10194;50.824;7.134;2023-09-08T02:43:24;16.30;99.90
20068;DHT22;10194;50.824;7.134;2023-09-08T02:45:50;16.30;99.90
20068;DHT22;10194;50.824;7.134;2023-09-08T02:48:16;16.30;99.90
20068;DHT22;10194;50.824;7.134;2023-09-08T02:50:43;16.40;99.90
20068;DHT22;10194;50.824;7.134;2023-09-08T02:53:09;16.40;99.90
20068;DHT22;10194;50.824;7.134;2023-09-08T02:55:35;16.40;99.90
20068;DHT22;10194;50.824;7.134;2023-09-08T02:58:01;16.50;99.90
20068;DHT22;10194;50.824;7.134;2023-09-08T03:00:26;16.50;99.90
20068;DHT22;10194;50.824;7.134;2023-09-08T03:02:52;16.50;99.90
20068;DHT22;10194;50.824;7.134;2023-09-08T03:05:18;16.50;99.90
20068;DHT22;10194;50.824;7.134;2023-09-08T03:07:47;16.50;99.90
20068;DHT22;10194;50.824;7.134;2023-09-08T03:10:13;16.40;99.90
20068;DHT22;10194;50.824;7.134;2023-09-08T03:12:39;16.40;99.90
20068;DHT22;10194;50.824;7.134;2023-09-08T03:15:05;16.40;99.90
20068;DHT22;10194;50.824;7.134;2023-09-08T03:17:31;16.40;99.90
20068;DHT22;10194;50.824;7.134;2023-09-08T03:19:57;16.40;99.90
20068;DHT22;10194;50.824;7.134;2023-09-08T03:22:23;16.30;99.90
20068;DHT22;10194;50.824;7.134;2023-09-08T03:24:50;16.30;99.90
20068;DHT22;10194;50.824;7.134;2023-09-08T03:27:16;16.40;99.90
20068;DHT22;10194;50.824;7.134;2023-09-08T03:29:42;16.30;99.90
20068;DHT22;10194;50.824;7.134;2023-09-08T03:32:08;16.40;99.90
20068;DHT22;10194;50.824;7.134;2023-09-08T03:34:39;16.30;99.90
20068;DHT22;10194;50.824;7.134;2023-09-08T03:37:07;16.30;99.90
20068;DHT22;10194;50.824;7.134;2023-09-08T03:39:35;16.30;99.90
20068;DHT22;10194;50.824;7.134;2023-09-08T03:42:03;16.30;99.90
20068;DHT22;10194;50.824;7.134;2023-09-08T03:44:29;16.30;99.90
20068;DHT22;10194;50.824;7.134;2023-09-08T03:46:55;16.20;99.90
20068;DHT22;10194;50.824;7.134;2023-09-08T03:49:21;16.30;99.90
20068;DHT22;10194;50.824;7.134;2023-09-08T03:51:46;16.20;99.90
20068;DHT22;10194;50.824;7.134;2023-09-08T03:54:12;16.10;99.90
20068;DHT22;10194;50.824;7.134;2023-09-08T03:56:38;16.10;99.90
20068;DHT22;10194;50.824;7.134;2023-09-08T03:59:03;16.10;99.90
20068;DHT22;10194;50.824;7.134;2023-09-08T04:01:29;16.10;99.90
20068;DHT22;10194;50.824;7.134;2023-09-08T04:03:55;16.00;99.90
20068;DHT22;10194;50.824;7.134;2023-09-08T04:06:20;15.90;99.90
20068;DHT22;10194;50.824;7.134;2023-09-08T04:08:47;16.00;99.90
20068;DHT22;10194;50.824;7.134;2023-09-08T04:11:12;16.00;99.90
20068;DHT22;10194;50.824;7.134;2023-09-08T04:13:38;16.00;99.90
20068;DHT22;10194;50.824;7.134;2023-09-08T04:16:04;16.00;99.90
20068;DHT22;10194;50.824;7.134;2023-09-08T04:18:30;16.00;99.90
20068;DHT22;10194;50.824;7.134;2023-09-08T04:20:56;15.90;99.90
20068;DHT22;10194;50.824;7.134;2023-09-08T04:23:21;16.00;99.90
20068;DHT22;10194;50.824;7.134;2023-09-08T04:25:47;15.90;99.90
20068;DHT22;10194;50.824;7.134;2023-09-08T04:28:13;15.90;99.90
20068;DHT22;10194;50.824;7.134;2023-09-08T04:30:39;15.80;99.90
20068;DHT22;10194;50.824;7.134;2023-09-08T04:33:04;15.70;99.90
20068;DHT22;10194;50.824;7.134;2023-09-08T04:35:30;15.70;99.90
20068;DHT22;10194;50.824;7.134;2023-09-08T04:37:56;15.70;99.90
20068;DHT22;10194;50.824;7.134;2023-09-08T04:40:22;15.70;99.90
20068;DHT22;10194;50.824;7.134;2023-09-08T04:42:47;15.70;99.90
20068;DHT22;10194;50.824;7.134;2023-09-08T04:45:13;15.60;99.90
20068;DHT22;10194;50.824;7.134;2023-09-08T04:47:39;15.70;99.90
20068;DHT22;10194;50.824;7.134;2023-09-08T04:50:05;15.60;99.90
20068;DHT22;10194;50.824;7.134;2023-09-08T04:52:31;15.60;99.90
20068;DHT22;10194;50.824;7.134;2023-09-08T04:54:57;15.50;99.90
20068;DHT22;10194;50.824;7.134;2023-09-08T04:57:22;15.70;99.90
20068;DHT22;10194;50.824;7.134;2023-09-08T04:59:48;15.60;99.90
20068;DHT22;10194;50.824;7.134;2023-09-08T05:02:14;15.60;99.90
20068;DHT22;10194;50.824;7.134;2023-09-08T05:04:40;15.70;99.90
20068;DHT22;10194;50.824;7.134;2023-09-08T05:07:06;15.70;99.90
20068;DHT22;10194;50.824;7.134;2023-09-08T05:09:32;15.80;99.90
20068;DHT22;10194;50.824;7.134;2023-09-08T05:11:59;15.70;99.90
20068;DHT22;10194;50.824;7.134;2023-09-08T05:14:25;15.70;99.90
20068;DHT22;10194;50.824;7.134;2023-09-08T05:16:51;15.60;99.90
20068;DHT22;10194;50.824;7.134;2023-09-08T05:19:21;15.60;99.90
20068;DHT22;10194;50.824;7.134;2023-09-08T05:21:50;15.70;99.90
20068;DHT22;10194;50.824;7.134;2023-09-08T05:24:17;15.70;99.90
20068;DHT22;10194;50.824;7.134;2023-09-08T05:26:42;15.60;99.90
20068;DHT22;10194;50.824;7.134;2023-09-08T05:29:08;15.70;99.90
20068;DHT22;10194;50.824;7.134;2023-09-08T05:31:34;15.60;99.90
20068;DHT22;10194;50.824;7.134;2023-09-08T05:34:00;15.70;99.90
20068;DHT22;10194;50.824;7.134;2023-09-08T05:36:26;15.70;99.90
20068;DHT22;10194;50.824;7.134;2023-09-08T05:38:51;15.80;99.90
20068;DHT22;10194;50.824;7.134;2023-09-08T05:41:17;15.80;99.90
20068;DHT22;10194;50.824;7.134;2023-09-08T05:43:44;15.90;99.90
20068;DHT22;10194;50.824;7.134;2023-09-08T05:46:11;15.90;99.90
20068;DHT22;10194;50.824;7.134;2023-09-08T05:48:39;16.00;99.90
20068;DHT22;10194;50.824;7.134;2023-09-08T05:51:05;16.00;99.90
20068;DHT22;10194;50.824;7.134;2023-09-08T05:53:32;16.10;99.90
20068;DHT22;10194;50.824;7.134;2023-09-08T05:55:59;16.10;99.90
20068;DHT22;10194;50.824;7.134;2023-09-08T05:58:24;16.30;99.90
20068;DHT22;10194;50.824;7.134;2023-09-08T06:00:53;16.40;99.90
20068;DHT22;10194;50.824;7.134;2023-09-08T06:03:19;16.70;99.90
20068;DHT22;10194;50.824;7.134;2023-09-08T06:05:45;16.80;99.90
20068;DHT22;10194;50.824;7.134;2023-09-08T06:08:11;16.90;99.90
20068;DHT22;10194;50.824;7.134;2023-09-08T06:10:37;17.10;99.90
20068;DHT22;10194;50.824;7.134;2023-09-08T06:13:04;17.90;99.90
20068;DHT22;10194;50.824;7.134;2023-09-08T06:15:30;18.90;99.90
20068;DHT22;10194;50.824;7.134;2023-09-08T06:17:56;19.50;99.90
20068;DHT22;10194;50.824;7.134;2023-09-08T06:20:22;20.10;99.90
20068;DHT22;10194;50.824;7.134;2023-09-08T06:22:48;20.60;99.90
20068;DHT22;10194;50.824;7.134;2023-09-08T06:25:14;20.80;99.90
20068;DHT22;10194;50.824;7.134;2023-09-08T06:27:40;20.90;99.90
20068;DHT22;10194;50.824;7.134;2023-09-08T06:30:06;21.40;99.90
20068;DHT22;10194;50.824;7.134;2023-09-08T06:32:32;21.50;99.90
20068;DHT22;10194;50.824;7.134;2023-09-08T06:34:58;21.50;99.90
20068;DHT22;10194;50.824;7.134;2023-09-08T06:37:24;21.40;99.90
20068;DHT22;10194;50.824;7.134;2023-09-08T06:39:50;21.80;99.90
20068;DHT22;10194;50.824;7.134;2023-09-08T06:42:16;22.10;99.90
20068;DHT22;10194;50.824;7.134;2023-09-08T06:44:41;22.30;99.90
20068;DHT22;10194;50.824;7.134;2023-09-08T06:47:07;22.30;99.90
20068;DHT22;10194;50.824;7.134;2023-09-08T06:49:33;22.40;99.90
20068;DHT22;10194;50.824;7.134;2023-09-08T06:51:59;22.40;99.90
20068;DHT22;10194;50.824;7.134;2023-09-08T06:54:24;22.70;99.90
20068;DHT22;10194;50.824;7.134;2023-09-08T06:56:50;22.70;99.90
20068;DHT22;10194;50.824;7.134;2023-09-08T06:59:16;22.80;99.90
20068;DHT22;10194;50.824;7.134;2023-09-08T07:01:42;22.80;99.90
20068;DHT22;10194;50.824;7.134;2023-09-08T07:04:08;22.40;99.90
20068;DHT22;10194;50.824;7.134;2023-09-08T07:06:34;23.00;99.90
20068;DHT22;10194;50.824;7.134;2023-09-08T07:09:02;23.50;99.90
20068;DHT22;10194;50.824;7.134;2023-09-08T07:11:28;23.20;99.90
20068;DHT22;10194;50.824;7.134;2023-09-08T07:13:54;23.10;99.90
20068;DHT22;10194;50.824;7.134;2023-09-08T07:16:20;23.20;99.90
20068;DHT22;10194;50.824;7.134;2023-09-08T07:18:46;23.30;99.90
20068;DHT22;10194;50.824;7.134;2023-09-08T07:21:11;23.30;99.90
20068;DHT22;10194;50.824;7.134;2023-09-08T07:23:37;23.80;99.90
20068;DHT22;10194;50.824;7.134;2023-09-08T07:26:03;23.40;99.90
20068;DHT22;10194;50.824;7.134;2023-09-08T07:28:29;23.10;99.90
20068;DHT22;10194;50.824;7.134;2023-09-08T07:31:01;23.60;99.90
20068;DHT22;10194;50.824;7.134;2023-09-08T07:33:28;24.20;99.90
20068;DHT22;10194;50.824;7.134;2023-09-08T07:35:54;24.20;99.90
20068;DHT22;10194;50.824;7.134;2023-09-08T07:38:19;24.20;99.90
20068;DHT22;10194;50.824;7.134;2023-09-08T07:40:45;23.80;99.90
20068;DHT22;10194;50.824;7.134;2023-09-08T07:43:11;23.50;99.90
20068;DHT22;10194;50.824;7.134;2023-09-08T07:45:36;24.00;99.90
20068;DHT22;10194;50.824;7.134;2023-09-08T07:48:02;24.00;99.90
20068;DHT22;10194;50.824;7.134;2023-09-08T07:50:28;23.90;99.90
20068;DHT22;10194;50.824;7.134;2023-09-08T07:52:56;23.70;99.90
20068;DHT22;10194;50.824;7.134;2023-09-08T07:55:22;23.90;99.90
20068;DHT22;10194;50.824;7.134;2023-09-08T07:57:50;23.60;99.90
20068;DHT22;10194;50.824;7.134;2023-09-08T08:00:16;23.80;99.90
20068;DHT22;10194;50.824;7.134;2023-09-08T08:02:49;23.80;99.90
20068;DHT22;10194;50.824;7.134;2023-09-08T08:05:22;24.00;99.90
20068;DHT22;10194;50.824;7.134;2023-09-08T08:07:48;24.20;99.90
20068;DHT22;10194;50.824;7.134;2023-09-08T08:10:14;24.00;99.90
20068;DHT22;10194;50.824;7.134;2023-09-08T08:12:41;24.10;99.90
20068;DHT22;10194;50.824;7.134;2023-09-08T08:15:09;23.70;99.90
20068;DHT22;10194;50.824;7.134;2023-09-08T08:17:39;23.80;99.90
20068;DHT22;10194;50.824;7.134;2023-09-08T08:20:06;23.90;99.90
20068;DHT22;10194;50.824;7.134;2023-09-08T08:22:37;24.00;99.90
20068;DHT22;10194;50.824;7.134;2023-09-08T08:25:04;24.40;99.90
20068;DHT22;10194;50.824;7.134;2023-09-08T08:27:30;24.10;99.90
20068;DHT22;10194;50.824;7.134;2023-09-08T08:29:57;24.20;99.90
20068;DHT22;10194;50.824;7.134;2023-09-08T08:32:28;24.30;99.90
20068;DHT22;10194;50.824;7.134;2023-09-08T08:34:55;24.10;99.90
20068;DHT22;10194;50.824;7.134;2023-09-08T08:37:20;24.30;99.90
20068;DHT22;10194;50.824;7.134;2023-09-08T08:39:46;24.60;99.90
20068;DHT22;10194;50.824;7.134;2023-09-08T08:42:12;24.80;99.90
20068;DHT22;10194;50.824;7.134;2023-09-08T08:44:40;24.80;99.90
20068;DHT22;10194;50.824;7.134;2023-09-08T08:47:07;24.70;99.90
20068;DHT22;10194;50.824;7.134;2023-09-08T08:49:36;24.70;99.90
20068;DHT22;10194;50.824;7.134;2023-09-08T08:52:04;24.80;99.90
20068;DHT22;10194;50.824;7.134;2023-09-08T08:54:38;25.00;99.90
20068;DHT22;10194;50.824;7.134;2023-09-08T08:57:06;24.90;99.90
20068;DHT22;10194;50.824;7.134;2023-09-08T08:59:32;24.80;99.90
20068;DHT22;10194;50.824;7.134;2023-09-08T09:01:59;24.90;99.90
20068;DHT22;10194;50.824;7.134;2023-09-08T09:04:25;24.90;99.90
20068;DHT22;10194;50.824;7.134;2023-09-08T09:06:53;25.10;99.90
20068;DHT22;10194;50.824;7.134;2023-09-08T09:09:19;25.30;99.90
20068;DHT22;10194;50.824;7.134;2023-09-08T09:11:46;25.40;99.90
20068;DHT22;10194;50.824;7.134;2023-09-08T09:14:12;25.50;99.90
20068;DHT22;10194;50.824;7.134;2023-09-08T09:16:41;25.60;99.90
20068;DHT22;10194;50.824;7.134;2023-09-08T09:19:08;25.50;99.90
20068;DHT22;10194;50.824;7.134;2023-09-08T09:21:47;25.90;99.90
20068;DHT22;10194;50.824;7.134;2023-09-08T09:24:17;26.00;99.90
20068;DHT22;10194;50.824;7.134;2023-09-08T09:26:55;25.80;99.90
20068;DHT22;10194;50.824;7.134;2023-09-08T09:29:22;25.90;99.90
20068;DHT22;10194;50.824;7.134;2023-09-08T09:32:04;26.00;99.90
20068;DHT22;10194;50.824;7.134;2023-09-08T09:34:31;26.30;99.90
20068;DHT22;10194;50.824;7.134;2023-09-08T09:36:57;26.20;99.90
20068;DHT22;10194;50.824;7.134;2023-09-08T09:39:25;26.40;99.90
20068;DHT22;10194;50.824;7.134;2023-09-08T09:41:55;26.50;99.90
20068;DHT22;10194;50.824;7.134;2023-09-08T09:44:23;26.50;99.90
20068;DHT22;10194;50.824;7.134;2023-09-08T09:46:52;26.50;99.90
20068;DHT22;10194;50.824;7.134;2023-09-08T09:49:18;26.70;99.90
20068;DHT22;10194;50.824;7.134;2023-09-08T09:51:49;26.80;99.90
20068;DHT22;10194;50.824;7.134;2023-09-08T09:54:18;26.70;99.90
20068;DHT22;10194;50.824;7.134;2023-09-08T09:56:45;26.90;99.90
20068;DHT22;10194;50.824;7.134;2023-09-08T09:59:14;26.90;99.90
20068;DHT22;10194;50.824;7.134;2023-09-08T10:01:41;26.90;99.90
20068;DHT22;10194;50.824;7.134;2023-09-08T10:04:08;26.80;99.90
20068;DHT22;10194;50.824;7.134;2023-09-08T10:06:35;26.70;99.90
20068;DHT22;10194;50.824;7.134;2023-09-08T10:09:04;26.80;99.90
20068;DHT22;10194;50.824;7.134;2023-09-08T10:11:47;27.10;99.90
20068;DHT22;10194;50.824;7.134;2023-09-08T10:14:15;27.30;99.90
20068;DHT22;10194;50.824;7.134;2023-09-08T10:16:45;27.50;99.90
20068;DHT22;10194;50.824;7.134;2023-09-08T10:19:16;27.50;99.90
20068;DHT22;10194;50.824;7.134;2023-09-08T10:21:45;27.50;99.90
20068;DHT22;10194;50.824;7.134;2023-09-08T10:24:34;27.30;99.90
20068;DHT22;10194;50.824;7.134;2023-09-08T10:27:08;27.40;99.90
20068;DHT22;10194;50.824;7.134;2023-09-08T10:29:38;27.40;99.20
20068;DHT22;10194;50.824;7.134;2023-09-08T10:32:07;27.60;99.60
20068;DHT22;10194;50.824;7.134;2023-09-08T10:34:35;27.50;99.20
20068;DHT22;10194;50.824;7.134;2023-09-08T10:37:01;27.30;98.60
20068;DHT22;10194;50.824;7.134;2023-09-08T10:39:32;27.40;99.20
20068;DHT22;10194;50.824;7.134;2023-09-08T10:42:33;27.70;99.70
20068;DHT22;10194;50.824;7.134;2023-09-08T10:45:01;27.80;98.60
20068;DHT22;10194;50.824;7.134;2023-09-08T10:50:27;27.70;97.20
20068;DHT22;10194;50.824;7.134;2023-09-08T10:55:49;27.60;97.30
20068;DHT22;10194;50.824;7.134;2023-09-08T10:58:32;27.60;97.40
20068;DHT22;10194;50.824;7.134;2023-09-08T11:01:13;27.70;97.90
20068;DHT22;10194;50.824;7.134;2023-09-08T11:06:10;27.60;97.80
20068;DHT22;10194;50.824;7.134;2023-09-08T11:08:42;27.60;97.80
20068;DHT22;10194;50.824;7.134;2023-09-08T11:11:13;27.60;98.00
20068;DHT22;10194;50.824;7.134;2023-09-08T11:13:40;27.70;98.00
20068;DHT22;10194;50.824;7.134;2023-09-08T11:16:07;27.80;97.20
20068;DHT22;10194;50.824;7.134;2023-09-08T11:18:34;27.80;97.20
20068;DHT22;10194;50.824;7.134;2023-09-08T11:21:02;27.90;96.90
20068;DHT22;10194;50.824;7.134;2023-09-08T11:23:28;27.80;97.00
20068;DHT22;10194;50.824;7.134;2023-09-08T11:25:54;27.90;96.10
20068;DHT22;10194;50.824;7.134;2023-09-08T11:28:24;27.90;96.20
20068;DHT22;10194;50.824;7.134;2023-09-08T11:30:50;27.90;96.40
20068;DHT22;10194;50.824;7.134;2023-09-08T11:33:20;27.80;96.50
20068;DHT22;10194;50.824;7.134;2023-09-08T11:35:54;27.80;97.20
20068;DHT22;10194;50.824;7.134;2023-09-08T11:38:27;27.90;97.20
20068;DHT22;10194;50.824;7.134;2023-09-08T11:40:55;27.90;95.20
20068;DHT22;10194;50.824;7.134;2023-09-08T11:43:23;27.90;95.00
20068;DHT22;10194;50.824;7.134;2023-09-08T11:45:49;27.90;95.20
20068;DHT22;10194;50.824;7.134;2023-09-08T11:48:15;28.00;95.30
20068;DHT22;10194;50.824;7.134;2023-09-08T11:50:42;28.10;94.80
20068;DHT22;10194;50.824;7.134;2023-09-08T11:53:09;28.10;93.60
20068;DHT22;10194;50.824;7.134;2023-09-08T11:55:35;27.90;94.80
20068;DHT22;10194;50.824;7.134;2023-09-08T11:58:08;28.00;95.20
20068;DHT22;10194;50.824;7.134;2023-09-08T12:00:34;28.10;95.70
20068;DHT22;10194;50.824;7.134;2023-09-08T12:03:13;28.10;93.80
20068;DHT22;10194;50.824;7.134;2023-09-08T12:05:41;28.10;94.90
20068;DHT22;10194;50.824;7.134;2023-09-08T12:08:07;28.40;94.10
20068;DHT22;10194;50.824;7.134;2023-09-08T12:10:41;28.30;93.00
20068;DHT22;10194;50.824;7.134;2023-09-08T12:13:07;28.30;94.30
20068;DHT22;10194;50.824;7.134;2023-09-08T12:15:40;28.40;93.10
20068;DHT22;10194;50.824;7.134;2023-09-08T12:18:09;28.50;93.20
20068;DHT22;10194;50.824;7.134;2023-09-08T12:20:38;28.40;92.60
20068;DHT22;10194;50.824;7.134;2023-09-08T12:23:15;28.30;93.50
20068;DHT22;10194;50.824;7.134;2023-09-08T12:25:46;28.40;93.40
20068;DHT22;10194;50.824;7.134;2023-09-08T12:28:13;28.50;93.80
20068;DHT22;10194;50.824;7.134;2023-09-08T12:30:39;28.50;92.30
20068;DHT22;10194;50.824;7.134;2023-09-08T12:33:05;28.40;93.00
20068;DHT22;10194;50.824;7.134;2023-09-08T12:35:31;28.30;92.60
20068;DHT22;10194;50.824;7.134;2023-09-08T12:37:58;28.30;92.70
20068;DHT22;10194;50.824;7.134;2023-09-08T12:40:29;28.30;92.90
20068;DHT22;10194;50.824;7.134;2023-09-08T12:42:56;28.70;92.90
20068;DHT22;10194;50.824;7.134;2023-09-08T12:45:26;28.60;91.80
20068;DHT22;10194;50.824;7.134;2023-09-08T12:47:53;28.60;93.20
20068;DHT22;10194;50.824;7.134;2023-09-08T12:50:20;28.50;93.20
20068;DHT22;10194;50.824;7.134;2023-09-08T12:52:46;28.90;92.40
20068;DHT22;10194;50.824;7.134;2023-09-08T12:55:12;29.00;91.30
20068;DHT22;10194;50.824;7.134;2023-09-08T12:57:38;28.70;92.30
20068;DHT22;10194;50.824;7.134;2023-09-08T13:00:05;28.60;92.00
20068;DHT22;10194;50.824;7.134;2023-09-08T13:02:31;28.60;92.00
20068;DHT22;10194;50.824;7.134;2023-09-08T13:04:57;28.70;91.50
20068;DHT22;10194;50.824;7.134;2023-09-08T13:07:23;28.70;91.60
20068;DHT22;10194;50.824;7.134;2023-09-08T13:09:49;28.70;91.90
20068;DHT22;10194;50.824;7.134;2023-09-08T13:12:16;28.60;92.20
20068;DHT22;10194;50.824;7.134;2023-09-08T13:14:42;28.70;91.40
20068;DHT22;10194;50.824;7.134;2023-09-08T13:17:09;28.70;91.50
20068;DHT22;10194;50.824;7.134;2023-09-08T13:19:35;28.70;91.90
20068;DHT22;10194;50.824;7.134;2023-09-08T13:22:06;28.90;91.40
20068;DHT22;10194;50.824;7.134;2023-09-08T13:24:32;28.90;90.90
20068;DHT22;10194;50.824;7.134;2023-09-08T13:26:59;28.80;91.40
20068;DHT22;10194;50.824;7.134;2023-09-08T13:29:26;28.70;91.10
20068;DHT22;10194;50.824;7.134;2023-09-08T13:31:52;28.70;91.20
20068;DHT22;10194;50.824;7.134;2023-09-08T13:34:20;28.70;91.40
20068;DHT22;10194;50.824;7.134;2023-09-08T13:36:47;28.80;91.60
20068;DHT22;10194;50.824;7.134;2023-09-08T13:39:13;28.80;91.60
20068;DHT22;10194;50.824;7.134;2023-09-08T13:41:49;28.80;91.70
20068;DHT22;10194;50.824;7.134;2023-09-08T13:44:17;28.80;91.50
20068;DHT22;10194;50.824;7.134;2023-09-08T13:46:45;28.60;91.20
20068;DHT22;10194;50.824;7.134;2023-09-08T13:49:15;28.70;92.60
20068;DHT22;10194;50.824;7.134;2023-09-08T13:51:41;28.80;91.30
20068;DHT22;10194;50.824;7.134;2023-09-08T13:54:08;28.80;91.90
20068;DHT22;10194;50.824;7.134;2023-09-08T13:56:34;28.90;90.50
20068;DHT22;10194;50.824;7.134;2023-09-08T13:59:03;28.90;91.40
20068;DHT22;10194;50.824;7.134;2023-09-08T14:01:29;29.00;91.30
20068;DHT22;10194;50.824;7.134;2023-09-08T14:03:55;29.00;91.30
20068;DHT22;10194;50.824;7.134;2023-09-08T14:06:22;28.80;91.50
20068;DHT22;10194;50.824;7.134;2023-09-08T14:08:49;28.70;91.30
20068;DHT22;10194;50.824;7.134;2023-09-08T14:11:16;28.70;92.30
20068;DHT22;10194;50.824;7.134;2023-09-08T14:13:41;29.00;91.40
20068;DHT22;10194;50.824;7.134;2023-09-08T14:16:08;29.00;92.00
20068;DHT22;10194;50.824;7.134;2023-09-08T14:18:34;29.20;91.80
20068;DHT22;10194;50.824;7.134;2023-09-08T14:21:00;29.10;91.90
20068;DHT22;10194;50.824;7.134;2023-09-08T14:23:26;29.10;91.20
20068;DHT22;10194;50.824;7.134;2023-09-08T14:25:52;29.20;91.40
20068;DHT22;10194;50.824;7.134;2023-09-08T14:28:19;29.30;90.50
20068;DHT22;10194;50.824;7.134;2023-09-08T14:30:45;29.30;90.60
20068;DHT22;10194;50.824;7.134;2023-09-08T14:33:11;29.10;90.80
20068;DHT22;10194;50.824;7.134;2023-09-08T14:35:41;29.10;91.20
20068;DHT22;10194;50.824;7.134;2023-09-08T14:38:08;29.00;90.80
20068;DHT22;10194;50.824;7.134;2023-09-08T14:40:34;29.00;91.00
20068;DHT22;10194;50.824;7.134;2023-09-08T14:43:00;28.90;91.40
20068;DHT22;10194;50.824;7.134;2023-09-08T14:45:26;28.90;91.50
20068;DHT22;10194;50.824;7.134;2023-09-08T14:47:53;28.90;91.70
20068;DHT22;10194;50.824;7.134;2023-09-08T14:50:19;28.90;91.70
20068;DHT22;10194;50.824;7.134;2023-09-08T14:52:45;29.00;91.10
20068;DHT22;10194;50.824;7.134;2023-09-08T14:55:12;29.10;90.80
20068;DHT22;10194;50.824;7.134;2023-09-08T14:57:38;29.10;90.70
20068;DHT22;10194;50.824;7.134;2023-09-08T15:00:04;29.00;90.80
20068;DHT22;10194;50.824;7.134;2023-09-08T15:02:32;29.00;90.60
20068;DHT22;10194;50.824;7.134;2023-09-08T15:04:57;29.00;90.90
20068;DHT22;10194;50.824;7.134;2023-09-08T15:07:23;29.10;90.80
20068;DHT22;10194;50.824;7.134;2023-09-08T15:09:49;29.10;91.40
20068;DHT22;10194;50.824;7.134;2023-09-08T15:12:16;29.00;92.10
20068;DHT22;10194;50.824;7.134;2023-09-08T15:14:42;29.20;91.90
20068;DHT22;10194;50.824;7.134;2023-09-08T15:17:08;29.20;91.90
20068;DHT22;10194;50.824;7.134;2023-09-08T15:19:35;29.10;91.20
20068;DHT22;10194;50.824;7.134;2023-09-08T15:22:01;29.00;92.00
20068;DHT22;10194;50.824;7.134;2023-09-08T15:24:27;29.00;92.10
20068;DHT22;10194;50.824;7.134;2023-09-08T15:26:53;29.00;91.70
20068;DHT22;10194;50.824;7.134;2023-09-08T15:29:18;29.10;92.00
20068;DHT22;10194;50.824;7.134;2023-09-08T15:31:45;28.90;91.80
20068;DHT22;10194;50.824;7.134;2023-09-08T15:34:12;29.00;91.10
20068;DHT22;10194;50.824;7.134;2023-09-08T15:36:38;29.00;91.50
20068;DHT22;10194;50.824;7.134;2023-09-08T15:39:04;28.90;92.10
20068;DHT22;10194;50.824;7.134;2023-09-08T15:41:29;28.70;92.20
20068;DHT22;10194;50.824;7.134;2023-09-08T15:43:55;28.70;92.50
20068;DHT22;10194;50.824;7.134;2023-09-08T15:46:21;28.60;92.80